createdAt,value
2023-04-25T00:01:22.818Z,74.87
2023-04-25T00:04:26.769Z,74.55
2023-04-25T00:07:29.373Z,74.37
2023-04-25T00:10:32.422Z,73.88
2023-04-25T00:13:35.083Z,73.91
2023-04-25T00:16:37.940Z,73.71
2023-04-25T00:19:40.314Z,73.70
2023-04-25T00:22:43.105Z,73.67
2023-04-25T00:25:47.007Z,74.08
2023-04-25T00:28:49.809Z,74.10
2023-04-25T00:31:52.245Z,73.92
2023-04-25T00:34:56.755Z,73.81
2023-04-25T00:37:59.088Z,73.91
2023-04-25T00:41:01.873Z,73.71
2023-04-25T00:44:07.885Z,73.82
2023-04-25T00:47:12.345Z,73.84
2023-04-25T00:50:15.149Z,73.96
2023-04-25T00:53:17.842Z,73.59
2023-04-25T00:56:21.473Z,73.61
2023-04-25T00:59:25.267Z,73.68
2023-04-25T01:02:28.348Z,73.63
2023-04-25T01:05:31.217Z,73.19
2023-04-25T01:08:33.514Z,72.74
2023-04-25T01:11:36.193Z,72.91
2023-04-25T01:14:38.551Z,72.46
2023-04-25T01:17:42.376Z,72.75
2023-04-25T01:20:46.866Z,72.60
2023-04-25T01:23:50.143Z,72.53
2023-04-25T01:26:53.989Z,72.60
2023-04-25T01:29:57.699Z,72.73
2023-04-25T01:33:01.387Z,72.96
2023-04-25T01:36:05.542Z,73.27
2023-04-25T01:39:08.515Z,73.74
2023-04-25T01:42:11.296Z,74.12
2023-04-25T01:45:13.808Z,74.39
2023-04-25T01:48:16.601Z,74.08
2023-04-25T01:51:19.372Z,74.27
2023-04-25T01:54:22.415Z,74.07
2023-04-25T01:57:25.759Z,74.02
2023-04-25T02:00:29.142Z,73.65
2023-04-25T02:03:34.649Z,73.12
2023-04-25T02:06:38.192Z,73.41
2023-04-25T02:09:42.377Z,73.06
2023-04-25T02:12:47.415Z,72.80
2023-04-25T02:15:50.495Z,72.59
2023-04-25T02:18:53.874Z,72.82
2023-04-25T02:21:58.093Z,72.62
2023-04-25T02:25:00.556Z,72.73
2023-04-25T02:28:03.549Z,72.39
2023-04-25T02:31:06.415Z,72.16
2023-04-25T02:34:09.009Z,72.15
2023-04-25T02:37:12.029Z,71.97
2023-04-25T02:40:14.524Z,70.81
2023-04-25T02:43:17.256Z,70.48
2023-04-25T02:46:32.049Z,69.23
2023-04-25T02:49:41.635Z,69.15
2023-04-25T02:52:44.391Z,68.93
2023-04-25T02:55:48.107Z,68.92
2023-04-25T02:58:50.832Z,69.31
2023-04-25T03:01:53.464Z,69.62
2023-04-25T03:04:55.847Z,70.31
2023-04-25T03:07:58.494Z,70.45
2023-04-25T03:11:02.452Z,70.32
2023-04-25T03:14:05.412Z,70.36
2023-04-25T03:17:07.815Z,70.57
2023-04-25T03:20:11.989Z,70.78
2023-04-25T03:23:15.349Z,71.12
2023-04-25T03:26:18.218Z,71.34
2023-04-25T03:29:25.311Z,70.79
2023-04-25T03:32:28.891Z,71.07
2023-04-25T03:35:31.336Z,71.23
2023-04-25T03:38:34.048Z,70.75
2023-04-25T03:41:36.768Z,71.00
2023-04-25T03:44:39.760Z,71.03
2023-04-25T03:47:42.508Z,71.12
2023-04-25T03:50:45.556Z,71.23
2023-04-25T03:53:49.317Z,71.41
2023-04-25T03:56:55.072Z,71.65
2023-04-25T03:59:57.916Z,71.97
2023-04-25T04:03:00.846Z,72.24
2023-04-25T04:06:05.362Z,72.28
2023-04-25T04:09:11.894Z,72.14
2023-04-25T04:12:14.821Z,71.73
2023-04-25T04:15:17.622Z,71.86
2023-04-25T04:18:20.614Z,73.23
2023-04-25T04:21:22.980Z,73.20
2023-04-25T04:24:26.174Z,73.57
2023-04-25T04:27:29.756Z,73.74
2023-04-25T04:30:37.267Z,73.91
2023-04-25T04:33:39.897Z,73.75
2023-04-25T04:36:43.773Z,74.46
2023-04-25T04:39:46.331Z,74.94
2023-04-25T04:42:50.562Z,75.07
2023-04-25T04:45:53.393Z,75.12
2023-04-25T04:48:57.460Z,75.88
2023-04-25T04:52:01.778Z,75.87
2023-04-25T04:55:06.529Z,76.16
2023-04-25T04:58:09.261Z,76.34
2023-04-25T05:01:13.112Z,76.64
2023-04-25T05:04:15.945Z,77.32
2023-04-25T05:07:19.751Z,78.01
2023-04-25T05:10:22.340Z,78.06
2023-04-25T05:13:28.147Z,77.87
2023-04-25T05:16:30.989Z,77.90
2023-04-25T05:19:33.770Z,78.24
2023-04-25T05:22:37.026Z,78.69
2023-04-25T05:25:41.014Z,78.90
2023-04-25T05:28:43.740Z,79.20
2023-04-25T05:31:46.545Z,79.04
2023-04-25T05:34:49.447Z,79.63
2023-04-25T05:37:53.042Z,78.99
2023-04-25T05:40:56.658Z,80.27
2023-04-25T05:44:03.412Z,81.48
2023-04-25T05:47:05.995Z,82.84
2023-04-25T05:50:10.006Z,83.38
2023-04-25T05:53:14.453Z,84.30
2023-04-25T05:56:17.256Z,84.47
2023-04-25T05:59:21.482Z,84.74
2023-04-25T06:02:24.439Z,84.30
2023-04-25T06:05:28.434Z,85.01
2023-04-25T06:08:30.962Z,84.55
2023-04-25T06:11:33.611Z,84.50
2023-04-25T06:14:36.034Z,84.77
2023-04-25T06:17:39.132Z,84.35
2023-04-25T06:20:42.173Z,84.63
2023-04-25T06:23:44.988Z,84.34
2023-04-25T06:26:48.589Z,84.71
2023-04-25T06:29:51.613Z,83.66
2023-04-25T06:32:54.408Z,83.27
2023-04-25T06:35:57.681Z,82.93
2023-04-25T06:39:00.261Z,82.92
2023-04-25T06:42:02.910Z,82.10
2023-04-25T06:45:06.866Z,82.00
2023-04-25T06:48:11.544Z,81.92
2023-04-25T06:51:16.967Z,81.62
2023-04-25T06:54:19.926Z,81.08
2023-04-25T06:57:24.536Z,81.63
2023-04-25T07:00:27.634Z,81.18
2023-04-25T07:03:30.377Z,79.98
2023-04-25T07:06:33.484Z,80.66
2023-04-25T07:09:36.324Z,80.71
2023-04-25T07:12:39.047Z,79.82
2023-04-25T07:15:41.930Z,79.35
2023-04-25T07:18:44.653Z,78.96
2023-04-25T07:21:46.974Z,79.02
2023-04-25T07:24:49.938Z,78.24
2023-04-25T07:27:52.811Z,78.03
2023-04-25T07:30:55.617Z,76.75
2023-04-25T07:33:59.440Z,76.64
2023-04-25T07:37:04.152Z,76.23
2023-04-25T07:40:10.587Z,76.25
2023-04-25T07:43:17.501Z,75.89
2023-04-25T07:46:21.000Z,75.40
2023-04-25T07:49:23.967Z,75.25
2023-04-25T07:52:26.465Z,73.97
2023-04-25T07:55:29.913Z,73.95
2023-04-25T07:58:32.661Z,72.79
2023-04-25T08:01:35.851Z,72.68
2023-04-25T08:04:39.691Z,71.83
2023-04-25T08:07:43.426Z,71.73
2023-04-25T08:10:47.113Z,70.72
2023-04-25T08:13:51.131Z,70.63
2023-04-25T08:16:53.937Z,70.07
2023-04-25T08:19:56.986Z,68.66
2023-04-25T08:23:00.001Z,68.58
2023-04-25T08:26:03.627Z,68.49
2023-04-25T08:29:07.547Z,68.14
2023-04-25T08:32:11.299Z,68.36
2023-04-25T08:35:14.656Z,66.76
2023-04-25T08:38:18.785Z,67.44
2023-04-25T08:41:23.820Z,66.73
2023-04-25T08:44:26.396Z,66.57
2023-04-25T08:47:30.930Z,66.58
2023-04-25T08:50:33.633Z,65.51
2023-04-25T08:53:38.540Z,65.32
2023-04-25T08:56:50.719Z,65.81
2023-04-25T08:59:54.032Z,65.45
2023-04-25T09:02:58.027Z,66.21
2023-04-25T09:06:04.965Z,65.58
2023-04-25T09:09:09.880Z,64.41
2023-04-25T09:12:13.250Z,63.97
2023-04-25T09:21:35.935Z,61.83
2023-04-25T09:24:39.696Z,61.51
2023-04-25T09:27:53.547Z,61.61
2023-04-25T09:31:00.740Z,61.07
2023-04-25T09:34:04.191Z,60.81
2023-04-25T09:37:13.066Z,60.38
2023-04-25T09:40:19.936Z,60.42
2023-04-25T09:43:24.331Z,60.28
2023-04-25T09:46:33.678Z,60.07
2023-04-25T09:49:43.622Z,60.61
2023-04-25T09:52:46.669Z,60.09
2023-04-25T09:55:49.846Z,59.66
2023-04-25T09:58:55.992Z,59.11
2023-04-25T10:01:59.928Z,58.62
2023-04-25T10:05:06.846Z,58.46
2023-04-25T10:08:11.203Z,58.79
2023-04-25T10:11:16.909Z,58.30
2023-04-25T10:14:20.594Z,56.81
2023-04-25T10:17:24.537Z,56.93
2023-04-25T10:20:27.504Z,57.10
2023-04-25T10:23:31.792Z,56.55
2023-04-25T10:26:34.080Z,56.31
2023-04-25T10:29:37.235Z,55.78
2023-04-25T10:32:39.605Z,55.78
2023-04-25T10:35:42.230Z,55.83
2023-04-25T10:38:46.162Z,56.27
2023-04-25T10:41:54.702Z,55.95
2023-04-25T10:45:06.423Z,55.35
2023-04-25T10:48:30.170Z,54.69
2023-04-25T10:51:51.015Z,53.45
2023-04-25T10:54:58.486Z,52.73
2023-04-25T10:58:02.003Z,52.43
2023-04-25T11:01:04.706Z,52.19
2023-04-25T11:04:07.800Z,52.96
2023-04-25T11:07:59.947Z,51.75
2023-04-25T11:11:06.787Z,51.04
2023-04-25T11:14:09.603Z,50.79
2023-04-25T11:17:12.268Z,49.57
2023-04-25T11:20:16.660Z,49.49
2023-04-25T11:23:19.051Z,49.51
2023-04-25T11:26:21.880Z,48.35
2023-04-25T11:29:25.065Z,47.71
2023-04-25T11:32:27.961Z,47.30
2023-04-25T11:35:30.539Z,47.38
2023-04-25T11:38:33.402Z,47.30
2023-04-25T11:41:38.112Z,47.35
2023-04-25T11:44:41.767Z,47.75
2023-04-25T11:47:44.288Z,48.58
2023-04-25T11:50:47.319Z,48.34
2023-04-25T11:53:49.697Z,47.38
2023-04-25T11:56:52.371Z,47.37
2023-04-25T11:59:54.727Z,47.46
2023-04-25T12:02:59.363Z,47.34
2023-04-25T12:06:05.529Z,47.51
2023-04-25T12:09:14.264Z,47.56
2023-04-25T12:12:17.481Z,48.54
2023-04-25T12:15:27.375Z,48.17
2023-04-25T12:18:30.083Z,48.66
2023-04-25T12:21:35.375Z,47.74
2023-04-25T12:24:41.458Z,46.81
2023-04-25T12:27:44.977Z,45.52
2023-04-25T12:31:00.693Z,44.43
2023-04-25T12:34:03.442Z,44.45
2023-04-25T12:37:06.567Z,43.33
2023-04-25T12:40:09.916Z,42.20
2023-04-25T12:43:12.567Z,42.50
2023-04-25T12:46:15.010Z,40.99
2023-04-25T12:49:19.077Z,40.25
2023-04-25T12:52:21.825Z,39.75
2023-04-25T12:55:24.581Z,38.65
2023-04-25T12:58:26.913Z,38.35
2023-04-25T13:01:30.155Z,38.78
2023-04-25T13:04:32.719Z,38.93
2023-04-25T13:07:36.121Z,39.34
2023-04-25T13:10:40.297Z,38.94
2023-04-25T13:13:43.567Z,37.83
2023-04-25T13:16:46.890Z,38.60
2023-04-25T13:19:49.636Z,38.74
2023-04-25T13:22:51.912Z,38.99
2023-04-25T13:25:56.249Z,37.98
2023-04-25T13:28:58.831Z,37.47
2023-04-25T13:32:01.844Z,37.62
2023-04-25T13:35:10.473Z,36.78
2023-04-25T13:38:14.551Z,36.58
2023-04-25T13:41:19.860Z,35.44
2023-04-25T13:44:22.823Z,34.80
2023-04-25T13:47:26.511Z,34.77
2023-04-25T13:50:29.477Z,34.91
2023-04-25T13:53:31.947Z,34.52
2023-04-25T13:56:34.713Z,34.93
2023-04-25T13:59:37.097Z,34.90
2023-04-25T14:02:40.091Z,33.55
2023-04-25T14:05:42.981Z,34.18
2023-04-25T14:08:45.296Z,34.02
2023-04-25T14:11:47.903Z,33.86
2023-04-25T14:14:50.524Z,34.32
2023-04-25T14:17:53.230Z,34.33
2023-04-25T14:20:55.796Z,34.60
2023-04-25T14:23:58.413Z,34.65
2023-04-25T14:27:00.750Z,34.84
2023-04-25T14:30:03.482Z,35.25
2023-04-25T14:33:06.272Z,35.42
2023-04-25T14:36:09.155Z,35.95
2023-04-25T14:39:11.594Z,35.83
2023-04-25T14:42:14.503Z,35.68
2023-04-25T14:45:16.886Z,36.20
2023-04-25T14:48:20.731Z,35.99
2023-04-25T14:51:23.362Z,36.45
2023-04-25T14:54:26.602Z,36.16
2023-04-25T14:57:28.865Z,36.05
2023-04-25T15:00:32.669Z,36.27
2023-04-25T15:03:35.359Z,36.09
2023-04-25T15:06:38.871Z,36.26
2023-04-25T15:09:41.143Z,36.66
2023-04-25T15:12:45.659Z,36.89
2023-04-25T15:15:52.336Z,36.82
2023-04-25T15:18:55.108Z,36.54
2023-04-25T15:21:57.616Z,36.73
2023-04-25T15:25:00.341Z,36.90
2023-04-25T15:28:02.740Z,36.81
2023-04-25T15:31:05.823Z,37.93
2023-04-25T15:34:08.189Z,37.79
2023-04-25T15:37:11.052Z,38.33
2023-04-25T15:40:16.471Z,38.58
2023-04-25T15:43:19.104Z,39.05
2023-04-25T15:46:23.341Z,39.02
2023-04-25T15:49:26.280Z,39.21
2023-04-25T15:52:28.996Z,39.44
2023-04-25T15:55:32.070Z,41.69
2023-04-25T15:58:34.488Z,43.03
2023-04-25T16:01:38.139Z,45.18
2023-04-25T16:04:41.143Z,48.31
2023-04-25T16:07:45.372Z,48.13
2023-04-25T16:10:48.425Z,49.84
2023-04-25T16:13:51.041Z,50.31
2023-04-25T16:16:54.021Z,49.91
2023-04-25T16:19:57.099Z,50.31
2023-04-25T16:23:00.364Z,50.54
2023-04-25T16:26:02.754Z,50.79
2023-04-25T16:29:06.629Z,51.25
2023-04-25T16:32:09.089Z,51.11
2023-04-25T16:35:12.318Z,51.03
2023-04-25T16:38:14.743Z,51.11
2023-04-25T16:41:17.720Z,51.07
2023-04-25T16:44:20.045Z,51.29
2023-04-25T16:47:23.044Z,51.61
2023-04-25T16:50:25.350Z,51.61
2023-04-25T16:53:28.042Z,51.90
2023-04-25T16:56:30.362Z,52.37
2023-04-25T16:59:33.039Z,52.56
2023-04-25T17:02:35.669Z,52.62
2023-04-25T17:05:38.421Z,52.83
2023-04-25T17:08:41.289Z,53.20
2023-04-25T17:11:43.942Z,53.36
2023-04-25T17:14:46.783Z,53.52
2023-04-25T17:17:49.505Z,53.69
2023-04-25T17:20:52.047Z,53.92
2023-04-25T17:23:54.762Z,54.16
2023-04-25T17:26:57.364Z,54.18
2023-04-25T17:30:00.238Z,54.37
2023-04-25T17:33:04.462Z,54.22
2023-04-25T17:36:07.258Z,53.57
2023-04-25T17:39:11.097Z,53.74
2023-04-25T17:42:14.656Z,53.39
2023-04-25T17:45:17.511Z,53.93
2023-04-25T17:48:22.563Z,54.11
2023-04-25T17:51:24.946Z,54.17
2023-04-25T17:54:28.230Z,54.36
2023-04-25T17:57:31.667Z,54.49
2023-04-25T18:00:34.435Z,54.99
2023-04-25T18:03:40.191Z,55.66
2023-04-25T18:06:42.667Z,56.28
2023-04-25T18:09:45.333Z,56.84
2023-04-25T18:12:47.670Z,57.15
2023-04-25T18:15:51.774Z,58.01
2023-04-25T18:18:54.410Z,58.77
2023-04-25T18:21:58.624Z,59.40
2023-04-25T18:25:01.492Z,59.49
2023-04-25T18:28:04.207Z,60.10
2023-04-25T18:31:06.983Z,60.17
2023-04-25T18:34:10.109Z,60.29
2023-04-25T18:37:14.250Z,59.87
2023-04-25T18:40:17.025Z,59.93
2023-04-25T18:43:19.383Z,59.89
2023-04-25T18:46:22.870Z,59.90
2023-04-25T18:49:25.315Z,59.75
2023-04-25T18:52:28.044Z,59.51
2023-04-25T18:55:30.696Z,59.53
2023-04-25T18:58:33.789Z,59.54
2023-04-25T19:01:36.497Z,59.19
2023-04-25T19:04:39.405Z,59.39
2023-04-25T19:07:42.326Z,59.96
2023-04-25T19:10:45.294Z,60.17
2023-04-25T19:13:51.224Z,60.26
2023-04-25T19:16:54.088Z,60.48
2023-04-25T19:19:56.582Z,60.30
2023-04-25T19:22:59.419Z,60.20
2023-04-25T19:26:03.409Z,60.31
2023-04-25T19:29:07.258Z,60.50
2023-04-25T19:32:09.574Z,60.23
2023-04-25T19:35:12.586Z,60.34
2023-04-25T19:38:15.398Z,59.91
2023-04-25T19:41:18.223Z,60.07
2023-04-25T19:44:20.515Z,59.94
2023-04-25T19:47:24.056Z,60.02
2023-04-25T19:50:26.485Z,60.15
2023-04-25T19:53:29.084Z,59.80
2023-04-25T19:56:31.467Z,60.04
2023-04-25T19:59:34.179Z,60.20
2023-04-25T20:02:37.135Z,60.44
2023-04-25T20:05:39.832Z,60.46
2023-04-25T20:08:42.156Z,60.32
2023-04-25T20:11:44.907Z,60.24
2023-04-25T20:14:47.207Z,60.24
2023-04-25T20:17:49.856Z,60.64
2023-04-25T20:20:54.190Z,61.11
2023-04-25T20:23:58.017Z,61.34
2023-04-25T20:27:01.210Z,61.43
2023-04-25T20:30:08.271Z,61.65
2023-04-25T20:33:11.180Z,61.54
2023-04-25T20:36:15.593Z,61.88
2023-04-25T20:39:18.013Z,61.81
2023-04-25T20:42:20.755Z,62.06
2023-04-25T20:45:24.507Z,62.30
2023-04-25T20:48:27.349Z,62.42
2023-04-25T20:51:30.573Z,62.42
2023-04-25T20:54:33.733Z,62.37
2023-04-25T20:57:36.079Z,62.64
2023-04-25T21:00:39.105Z,62.52
2023-04-25T21:03:41.626Z,62.87
2023-04-25T21:06:44.522Z,62.97
2023-04-25T21:09:47.924Z,62.90
2023-04-25T21:12:52.424Z,62.99
2023-04-25T21:15:55.501Z,63.54
2023-04-25T21:18:58.530Z,63.78
2023-04-25T21:22:02.289Z,63.89
2023-04-25T21:25:06.281Z,64.04
2023-04-25T21:28:08.848Z,64.17
2023-04-25T21:31:11.526Z,64.49
2023-04-25T21:34:13.886Z,64.66
2023-04-25T21:37:16.502Z,64.88
2023-04-25T21:40:19.531Z,65.00
2023-04-25T21:43:22.124Z,64.72
2023-04-25T21:46:25.553Z,65.35
2023-04-25T21:49:29.599Z,65.69
2023-04-25T21:52:32.371Z,65.94
2023-04-25T21:55:35.016Z,66.23
2023-04-25T21:58:37.339Z,66.51
2023-04-25T22:01:40.030Z,66.79
2023-04-25T22:04:47.649Z,66.81
2023-04-25T22:07:51.720Z,67.12
2023-04-25T22:10:55.289Z,67.29
2023-04-25T22:13:57.671Z,67.48
2023-04-25T22:17:02.505Z,67.60
2023-04-25T22:20:10.203Z,67.83
2023-04-25T22:23:12.795Z,67.63
2023-04-25T22:26:15.228Z,67.76
2023-04-25T22:29:17.830Z,67.58
2023-04-25T22:32:20.104Z,67.22
2023-04-25T22:35:23.203Z,67.20
2023-04-25T22:38:26.067Z,67.38
2023-04-25T22:41:28.759Z,67.79
2023-04-25T22:44:31.464Z,67.44
2023-04-25T22:47:38.395Z,67.52
2023-04-25T22:50:41.431Z,67.23
2023-04-25T22:53:45.338Z,67.25
2023-04-25T22:56:47.723Z,66.84
2023-04-25T22:59:54.398Z,66.86
2023-04-25T23:02:57.055Z,67.08
2023-04-25T23:06:00.117Z,66.64
2023-04-25T23:09:02.408Z,66.42
2023-04-25T23:12:05.252Z,66.13
2023-04-25T23:15:08.704Z,65.91
2023-04-25T23:18:11.324Z,65.92
2023-04-25T23:21:13.729Z,65.89
2023-04-25T23:24:16.298Z,66.08
2023-04-25T23:27:18.580Z,66.38
2023-04-25T23:30:21.509Z,66.23
2023-04-25T23:33:23.813Z,66.37
2023-04-25T23:36:28.020Z,66.31
2023-04-25T23:39:33.440Z,66.22
2023-04-25T23:42:37.053Z,65.85
2023-04-25T23:45:40.181Z,65.86
2023-04-25T23:48:42.762Z,65.91
2023-04-25T23:51:45.077Z,65.57
2023-04-25T23:54:47.724Z,65.19
2023-04-25T23:57:50.002Z,64.94
